Time;durP1;ratioP1;P1;durP2;ratioP2;P2;SDS_P1;SDS_P2;PMS_P1;PMS_P2;Temp;Humidity;BMP_temperature;BMP_pressure;BME280_temperature;BME280_humidity;BME280_pressure;Samples;Min_cycle;Max_cycle;Signal;HPM_P1;HPM_P2
2022/11/14 00:02:03;;;;;;;23.23;15.10;;;;;;;5.32;100.00;96699.44;5034872;28;20069;-66
2022/11/14 00:04:29;;;;;;;24.98;14.48;;;;;;;5.35;100.00;96691.41;5019649;28;20041;-69
2022/11/14 00:06:54;;;;;;;25.67;15.55;;;;;;;5.38;100.00;96698.09;5037836;28;20048;-69
2022/11/14 00:09:24;;;;;;;27.85;16.98;;;;;;;5.28;100.00;96702.00;5034001;28;20036;-70
2022/11/14 00:11:49;;;;;;;26.02;15.90;;;;;;;5.24;100.00;96698.38;5037347;28;20045;-69
2022/11/14 00:14:15;;;;;;;24.52;15.45;;;;;;;5.35;100.00;96702.28;5015550;28;20120;-69
2022/11/14 00:16:40;;;;;;;23.77;14.93;;;;;;;5.34;100.00;96700.69;5036484;28;20071;-69
2022/11/14 00:19:06;;;;;;;28.38;15.45;;;;;;;5.11;100.00;96700.25;5032323;28;20041;-68
2022/11/14 00:21:31;;;;;;;28.23;16.48;;;;;;;5.08;100.00;96697.41;5039063;28;20098;-69
2022/11/14 00:23:56;;;;;;;27.58;15.88;;;;;;;5.07;100.00;96696.56;5038992;28;20040;-69
2022/11/14 00:26:22;;;;;;;23.00;14.88;;;;;;;5.09;100.00;96690.81;5033902;28;20049;-69
2022/11/14 00:28:47;;;;;;;22.90;14.73;;;;;;;5.12;100.00;96684.75;5050331;28;20056;-69
2022/11/14 00:31:12;;;;;;;23.60;15.38;;;;;;;5.23;100.00;96675.06;5014562;28;20068;-69
2022/11/14 00:33:38;;;;;;;23.58;14.98;;;;;;;5.34;100.00;96667.31;5037013;28;20470;-68
2022/11/14 00:36:04;;;;;;;23.42;15.38;;;;;;;5.42;100.00;96669.16;5035323;28;20064;-68
2022/11/14 00:38:29;;;;;;;24.42;15.02;;;;;;;5.47;100.00;96665.44;5037074;28;20524;-69
2022/11/14 00:40:55;;;;;;;22.45;15.35;;;;;;;5.52;100.00;96663.28;5038648;28;20045;-69
2022/11/14 00:43:20;;;;;;;21.02;14.23;;;;;;;5.52;100.00;96667.94;5033002;28;20037;-69
2022/11/14 00:45:46;;;;;;;27.90;15.40;;;;;;;5.41;100.00;96675.72;5035615;28;20047;-69
2022/11/14 00:48:12;;;;;;;24.90;15.15;;;;;;;5.26;100.00;96668.19;5032129;28;20130;-69
2022/11/14 00:50:38;;;;;;;22.90;15.15;;;;;;;5.21;100.00;96676.53;5019709;28;20049;-69
2022/11/14 00:53:03;;;;;;;26.05;16.10;;;;;;;5.15;100.00;96675.94;5035334;28;20053;-66
2022/11/14 00:55:29;;;;;;;25.17;16.50;;;;;;;5.19;100.00;96676.06;5036879;28;20466;-69
2022/11/14 00:57:54;;;;;;;27.42;16.17;;;;;;;5.20;100.00;96680.34;5004168;28;20098;-69
2022/11/14 01:00:20;;;;;;;26.60;15.55;;;;;;;5.22;100.00;96673.50;5033678;28;20041;-70
2022/11/14 01:02:45;;;;;;;27.98;15.48;;;;;;;5.24;100.00;96681.28;5036696;28;20060;-69
2022/11/14 01:05:11;;;;;;;27.50;17.27;;;;;;;5.11;100.00;96680.41;5014391;28;20040;-69
2022/11/14 01:07:36;;;;;;;29.30;17.45;;;;;;;5.07;100.00;96671.34;5037788;28;20041;-69
2022/11/14 01:10:02;;;;;;;28.63;17.25;;;;;;;5.10;100.00;96670.72;5037663;28;20500;-69
2022/11/14 01:12:28;;;;;;;32.78;19.05;;;;;;;5.06;100.00;96681.44;5034489;28;20033;-69
2022/11/14 01:14:53;;;;;;;31.17;19.15;;;;;;;5.02;100.00;96676.97;5036350;28;20371;-70
2022/11/14 01:17:19;;;;;;;31.50;18.88;;;;;;;4.92;100.00;96678.19;5031841;28;20108;-70
2022/11/14 01:19:44;;;;;;;29.92;19.05;;;;;;;4.85;100.00;96675.97;5036652;28;20133;-68
2022/11/14 01:22:09;;;;;;;35.47;19.15;;;;;;;4.93;100.00;96666.19;5015241;28;20041;-67
2022/11/14 01:24:35;;;;;;;30.65;18.52;;;;;;;5.12;100.00;96655.66;5037814;28;20616;-68
2022/11/14 01:27:01;;;;;;;28.33;17.40;;;;;;;5.26;100.00;96655.41;5037420;28;20037;-69
2022/11/14 01:29:26;;;;;;;30.13;17.83;;;;;;;5.43;100.00;96642.78;5014061;28;20110;-69
2022/11/14 01:31:52;;;;;;;27.80;16.55;;;;;;;5.64;100.00;96634.59;5038055;28;20036;-69
2022/11/14 01:34:17;;;;;;;27.65;16.52;;;;;;;5.73;100.00;96630.63;5032933;28;20049;-69
2022/11/14 01:36:43;;;;;;;28.75;16.73;;;;;;;5.72;100.00;96630.97;5021700;28;20174;-69
2022/11/14 01:39:08;;;;;;;28.92;17.20;;;;;;;5.59;100.00;96637.50;5031938;28;20048;-69
2022/11/14 01:41:33;;;;;;;28.30;17.60;;;;;;;5.44;100.00;96641.63;5039089;28;20088;-69
2022/11/14 01:43:59;;;;;;;27.75;17.40;;;;;;;5.22;100.00;96642.81;5039397;28;20041;-69
2022/11/14 01:46:32;;;;;;;33.67;19.23;;;;;;;5.02;100.00;96650.63;5033702;28;20045;-69
2022/11/14 01:49:09;;;;;;;36.83;21.23;;;;;;;4.93;100.00;96647.19;5021575;28;20473;-69
2022/11/14 01:51:45;;;;;;;34.30;20.88;;;;;;;4.93;100.00;96650.72;5034655;28;20037;-69
2022/11/14 01:54:18;;;;;;;38.92;21.15;;;;;;;5.02;100.00;96649.84;5033761;28;20040;-68
2022/11/14 01:56:50;;;;;;;36.90;22.05;;;;;;;5.04;100.00;96644.88;5036660;28;20064;-68
2022/11/14 01:59:21;;;;;;;42.65;22.45;;;;;;;4.94;100.00;96640.66;5033985;28;20045;-68
2022/11/14 02:01:49;;;;;;;37.53;20.25;;;;;;;4.88;100.00;96636.53;5022045;28;20110;-69
2022/11/14 02:04:21;;;;;;;40.28;22.45;;;;;;;4.80;100.00;96627.34;5034115;28;20403;-70
2022/11/14 02:06:47;;;;;;;41.05;21.60;;;;;;;4.76;100.00;96632.63;5045050;28;20439;-68
2022/11/14 02:09:12;;;;;;;40.10;21.52;;;;;;;4.77;100.00;96626.09;5032616;28;20049;-69
2022/11/14 02:11:43;;;;;;;41.17;21.85;;;;;;;4.81;100.00;96619.97;5053103;28;20044;-69
2022/11/14 02:14:09;;;;;;;42.03;22.48;;;;;;;4.79;100.00;96631.97;5028700;28;20041;-70
2022/11/14 02:16:35;;;;;;;38.10;21.90;;;;;;;5.06;100.00;96637.19;5041723;28;20045;-70
2022/11/14 02:19:01;;;;;;;35.10;20.52;;;;;;;5.24;100.00;96640.53;5047839;28;20114;-70
2022/11/14 02:21:26;;;;;;;34.92;19.80;;;;;;;5.37;100.00;96631.34;5027523;28;20049;-69
2022/11/14 02:23:51;;;;;;;34.42;21.10;;;;;;;5.37;100.00;96644.91;5045906;28;20053;-70
2022/11/14 02:26:21;;;;;;;32.60;19.05;;;;;;;5.12;100.00;96638.59;5040077;28;20041;-70
2022/11/14 02:28:46;;;;;;;;;;;;;;;4.98;100.00;96636.13;5041299;28;20119;-70
2022/11/14 02:31:13;;;;;;;36.08;19.85;;;;;;;4.88;100.00;96641.94;5037664;28;20037;-70
2022/11/14 02:33:38;;;;;;;37.65;20.30;;;;;;;4.74;100.00;96644.94;5025141;28;20091;-69
2022/11/14 02:36:04;;;;;;;36.08;20.02;;;;;;;4.77;100.00;96642.38;5034649;28;20498;-68
2022/11/14 02:38:30;;;;;;;37.70;21.67;;;;;;;4.75;100.00;96652.75;5042177;28;20047;-69
2022/11/14 02:40:55;;;;;;;35.55;20.05;;;;;;;4.77;100.00;96645.06;5042349;28;20045;-69
2022/11/14 02:43:21;;;;;;;34.03;20.73;;;;;;;4.72;100.00;96641.78;5036206;28;20044;-68
2022/11/14 02:45:46;;;;;;;32.38;18.27;;;;;;;4.70;100.00;96644.00;5021551;28;20094;-68
2022/11/14 02:48:12;;;;;;;35.47;21.05;;;;;;;4.69;100.00;96635.06;5035162;28;20094;-69
2022/11/14 02:50:37;;;;;;;37.35;20.85;;;;;;;4.62;100.00;96637.50;5042303;28;20550;-69
2022/11/14 02:53:03;;;;;;;39.22;21.02;;;;;;;4.56;100.00;96633.41;5039311;28;20076;-68
2022/11/14 02:55:28;;;;;;;37.15;21.13;;;;;;;4.55;100.00;96638.03;5036634;28;20132;-69
2022/11/14 02:57:54;;;;;;;36.60;21.42;;;;;;;4.53;100.00;96629.41;5040874;28;20075;-69
2022/11/14 03:00:19;;;;;;;37.22;21.98;;;;;;;4.55;100.00;96629.09;5015991;28;20041;-69
2022/11/14 03:02:44;;;;;;;38.05;21.85;;;;;;;4.55;100.00;96620.97;5022706;28;20044;-69
2022/11/14 03:05:10;;;;;;;36.85;21.00;;;;;;;4.56;100.00;96620.63;5016720;28;20045;-69
2022/11/14 03:07:35;;;;;;;37.05;20.40;;;;;;;4.63;100.00;96622.00;5021813;28;20050;-69
2022/11/14 03:10:01;;;;;;;33.08;19.95;;;;;;;4.78;100.00;96611.38;5021816;28;20037;-69
2022/11/14 03:12:26;;;;;;;32.78;19.17;;;;;;;4.93;100.00;96625.47;5036793;28;20045;-69
2022/11/14 03:14:51;;;;;;;30.63;18.40;;;;;;;4.70;100.00;96630.44;5047803;28;20047;-69
2022/11/14 03:17:17;;;;;;;33.20;18.65;;;;;;;4.68;100.00;96629.97;5043023;28;20146;-69
2022/11/14 03:19:44;;;;;;;31.98;19.23;;;;;;;4.55;100.00;96634.53;5040642;28;20041;-69
2022/11/14 03:22:10;;;;;;;34.47;19.48;;;;;;;4.51;100.00;96639.81;5034512;28;20047;-68
2022/11/14 03:24:35;;;;;;;35.35;20.98;;;;;;;4.61;100.00;96644.06;5041535;28;20048;-70
2022/11/14 03:27:00;;;;;;;33.53;21.27;;;;;;;4.61;100.00;96638.66;5040372;28;20107;-70
2022/11/14 03:29:26;;;;;;;35.33;21.83;;;;;;;4.52;100.00;96633.28;5032315;28;20127;-69
2022/11/14 03:31:51;;;;;;;33.63;20.38;;;;;;;4.60;100.00;96639.75;5041611;28;20041;-69
2022/11/14 03:34:17;;;;;;;37.50;22.45;;;;;;;4.51;100.00;96641.72;5035017;28;20044;-70
2022/11/14 03:36:42;;;;;;;37.13;21.50;;;;;;;4.50;100.00;96640.94;5023115;28;20055;-71
2022/11/14 03:39:08;;;;;;;42.03;23.00;;;;;;;4.48;100.00;96637.75;5035962;28;20044;-69
2022/11/14 03:41:33;;;;;;;40.03;22.25;;;;;;;4.50;100.00;96635.53;5040755;28;20494;-69
2022/11/14 03:43:59;;;;;;;43.95;25.33;;;;;;;4.47;100.00;96622.59;5022155;28;20107;-69
2022/11/14 03:46:24;;;;;;;41.80;24.55;;;;;;;4.47;100.00;96635.38;5026211;28;20045;-69
2022/11/14 03:48:50;;;;;;;47.97;25.35;;;;;;;4.46;100.00;96625.66;5060286;28;20052;-69
2022/11/14 03:51:15;;;;;;;48.88;26.08;;;;;;;4.44;100.00;96627.91;5042449;28;20139;-69
2022/11/14 03:53:41;;;;;;;45.17;26.27;;;;;;;4.46;100.00;96636.50;5041501;28;20099;-69
2022/11/14 03:56:06;;;;;;;48.75;25.80;;;;;;;4.50;100.00;96623.84;5034902;28;20071;-69
2022/11/14 03:58:31;;;;;;;46.10;26.75;;;;;;;4.47;100.00;96628.03;5019763;28;20441;-68
2022/11/14 04:00:57;;;;;;;49.83;27.73;;;;;;;4.44;100.00;96628.69;5039712;28;20044;-69
2022/11/14 04:03:24;;;;;;;48.80;25.75;;;;;;;4.46;100.00;96625.66;5035964;28;20604;-69
2022/11/14 04:05:49;;;;;;;50.33;27.10;;;;;;;4.53;100.00;96626.72;5039010;28;20056;-69
2022/11/14 04:08:16;;;;;;;47.10;26.38;;;;;;;4.58;100.00;96629.22;5035748;28;20049;-69
2022/11/14 04:10:42;;;;;;;51.60;27.42;;;;;;;4.58;100.00;96626.53;5039688;28;20048;-69
2022/11/14 04:13:08;;;;;;;51.58;27.42;;;;;;;4.54;100.00;96612.03;5017569;28;20041;-68
2022/11/14 04:15:34;;;;;;;50.40;28.25;;;;;;;4.50;100.00;96616.53;5039768;28;20056;-69
2022/11/14 04:17:59;;;;;;;55.60;28.60;;;;;;;4.47;100.00;96611.75;5039132;28;20087;-70
2022/11/14 04:20:25;;;;;;;50.47;27.25;;;;;;;4.51;100.00;96609.19;5035592;28;20048;-70
2022/11/14 04:22:50;;;;;;;53.33;27.63;;;;;;;4.47;100.00;96597.41;5039499;28;20032;-69
2022/11/14 04:25:16;;;;;;;53.35;28.85;;;;;;;4.46;100.00;96596.59;5034126;28;20040;-69
2022/11/14 04:27:42;;;;;;;58.20;29.30;;;;;;;4.46;100.00;96599.31;5040087;28;20075;-69
2022/11/14 04:30:08;;;;;;;56.17;29.65;;;;;;;4.44;100.00;96592.63;5032663;28;20457;-70
2022/11/14 04:32:34;;;;;;;56.40;28.83;;;;;;;4.47;100.00;96595.50;5022474;28;20128;-70
2022/11/14 04:34:59;;;;;;;58.53;29.75;;;;;;;4.47;100.00;96595.50;5040243;28;20116;-70
2022/11/14 04:37:24;;;;;;;58.65;30.20;;;;;;;4.48;100.00;96597.06;5034092;28;20104;-70
2022/11/14 04:39:50;;;;;;;60.45;30.60;;;;;;;4.48;100.00;96593.56;5054686;28;20122;-68
2022/11/14 04:42:15;;;;;;;58.58;30.20;;;;;;;4.46;100.00;96587.69;5035447;28;20048;-69
2022/11/14 04:44:40;;;;;;;59.83;29.10;;;;;;;4.53;100.00;96591.44;5039144;28;20045;-68
2022/11/14 04:47:06;;;;;;;61.53;29.35;;;;;;;4.55;100.00;96589.19;5034319;28;20559;-70
2022/11/14 04:49:31;;;;;;;66.50;30.52;;;;;;;4.49;100.00;96584.31;5040536;28;20048;-69
2022/11/14 04:51:57;;;;;;;58.72;30.80;;;;;;;4.48;100.00;96590.84;5046086;28;20124;-69
2022/11/14 04:54:22;;;;;;;67.07;30.70;;;;;;;4.45;100.00;96592.31;5045046;28;20506;-69
2022/11/14 04:56:48;;;;;;;61.47;29.70;;;;;;;4.45;100.00;96584.19;5050190;28;20508;-72
2022/11/14 04:59:13;;;;;;;61.22;30.50;;;;;;;4.51;100.00;96574.72;5023999;28;20037;-69
2022/11/14 05:01:39;;;;;;;64.43;31.70;;;;;;;4.47;100.00;96579.22;5041262;28;20048;-69
2022/11/14 05:04:04;;;;;;;71.78;33.05;;;;;;;4.49;100.00;96581.59;5034987;28;20045;-66
2022/11/14 05:06:29;;;;;;;68.10;31.73;;;;;;;4.53;100.00;96577.88;5039485;28;20513;-70
2022/11/14 05:08:55;;;;;;;65.15;31.55;;;;;;;4.56;100.00;96579.94;5018020;28;20797;-69
2022/11/14 05:11:20;;;;;;;65.57;31.23;;;;;;;4.61;100.00;96578.97;5033432;28;20471;-69
2022/11/14 05:13:46;;;;;;;71.80;32.15;;;;;;;4.49;100.00;96576.19;5022662;28;20045;-70
2022/11/14 05:16:11;;;;;;;74.85;31.75;;;;;;;4.45;100.00;96573.34;5032810;28;20072;-69
2022/11/14 05:18:38;;;;;;;72.75;33.97;;;;;;;4.46;100.00;96576.81;5056956;28;20043;-69
2022/11/14 05:21:04;;;;;;;73.65;34.15;;;;;;;4.46;100.00;96574.91;5047013;28;20041;-66
2022/11/14 05:23:29;;;;;;;76.28;34.83;;;;;;;4.44;100.00;96569.03;5041846;28;20048;-68
2022/11/14 05:26:02;;;;;;;78.88;34.25;;;;;;;4.46;100.00;96574.13;5050376;28;20045;-68
2022/11/14 05:28:29;;;;;;;87.45;35.88;;;;;;;4.44;100.00;96568.22;5039752;28;20045;-68
2022/11/14 05:31:08;;;;;;;79.20;35.92;;;;;;;4.44;100.00;96565.53;5039341;28;20079;-68
2022/11/14 05:33:34;;;;;;;72.15;35.00;;;;;;;4.44;100.00;96568.22;5021881;28;20037;-68
2022/11/14 05:36:09;;;;;;;83.63;35.72;;;;;;;4.43;100.00;96555.78;5039286;28;20092;-69
2022/11/14 05:38:34;;;;;;;84.90;36.22;;;;;;;4.40;100.00;96559.97;5039104;28;20044;-68
2022/11/14 05:41:08;;;;;;;80.18;36.15;;;;;;;4.43;100.00;96559.31;5019757;28;20041;-68
2022/11/14 05:43:34;;;;;;;76.30;35.28;;;;;;;4.45;100.00;96557.06;5039356;28;20041;-68
2022/11/14 05:46:00;;;;;;;72.03;34.63;;;;;;;4.51;100.00;96542.16;5038945;28;20039;-68
2022/11/14 05:48:25;;;;;;;77.68;35.10;;;;;;;4.65;100.00;96536.47;5033769;28;20053;-68
2022/11/14 05:50:55;;;;;;;76.70;35.70;;;;;;;4.72;100.00;96542.16;5043037;28;20048;-68
2022/11/14 05:53:20;;;;;;;;;;;;;;;4.88;100.00;96544.25;5038818;28;20081;-68
2022/11/14 05:55:46;;;;;;;75.05;33.60;;;;;;;4.68;100.00;96538.53;5041907;28;20029;-69
2022/11/14 05:58:11;;;;;;;72.30;32.70;;;;;;;4.59;100.00;96545.94;5019182;28;20033;-67
2022/11/14 06:00:37;;;;;;;69.78;32.00;;;;;;;4.59;100.00;96552.16;5042350;28;20101;-68
2022/11/14 06:03:02;;;;;;;67.90;32.85;;;;;;;4.73;100.00;96556.53;5052032;28;20035;-69
2022/11/14 06:05:28;;;;;;;70.40;31.70;;;;;;;4.82;100.00;96551.03;5044734;28;20080;-68
2022/11/14 06:07:55;;;;;;;67.45;31.50;;;;;;;4.98;100.00;96552.00;5043255;28;20074;-68
2022/11/14 06:10:21;;;;;;;67.60;31.35;;;;;;;5.03;100.00;96553.72;5035872;28;20041;-68
2022/11/14 06:12:47;;;;;;;59.28;30.58;;;;;;;4.90;100.00;96540.09;5025275;28;20597;-69
2022/11/14 06:15:12;;;;;;;63.28;29.33;;;;;;;4.87;100.00;96538.03;5036099;28;20478;-70
2022/11/14 06:17:37;;;;;;;61.05;31.55;;;;;;;4.83;100.00;96534.41;5042998;28;20065;-69
2022/11/14 06:20:04;;;;;;;60.05;28.17;;;;;;;4.77;100.00;96538.44;5035480;28;20057;-68
2022/11/14 06:22:29;;;;;;;66.68;30.52;;;;;;;4.98;100.00;96554.69;5042215;28;20072;-70
2022/11/14 06:24:55;;;;;;;58.83;30.65;;;;;;;5.06;100.00;96553.84;5044431;28;20072;-70
2022/11/14 06:27:20;;;;;;;53.95;27.17;;;;;;;5.01;100.00;96550.53;5051906;28;20041;-71
2022/11/14 06:29:45;;;;;;;52.95;27.13;;;;;;;5.23;100.00;96552.88;5049721;28;20052;-70
2022/11/14 06:32:11;;;;;;;49.13;26.05;;;;;;;5.29;100.00;96548.78;5036599;28;20036;-69
2022/11/14 06:34:36;;;;;;;52.15;26.67;;;;;;;5.38;100.00;96546.00;5041507;28;20045;-68
2022/11/14 06:37:03;;;;;;;46.78;24.27;;;;;;;5.33;100.00;96547.03;5042484;28;20040;-68
2022/11/14 06:39:29;;;;;;;46.35;25.52;;;;;;;5.36;100.00;96561.84;5021295;28;20049;-68
2022/11/14 06:41:54;;;;;;;41.33;23.95;;;;;;;5.40;100.00;96567.38;5043006;28;20072;-68
2022/11/14 06:44:19;;;;;;;44.25;24.38;;;;;;;5.25;100.00;96568.81;5036630;28;20067;-68
2022/11/14 06:46:45;;;;;;;47.38;27.20;;;;;;;5.02;100.00;96549.41;5023556;28;20044;-68
2022/11/14 06:49:10;;;;;;;47.83;28.55;;;;;;;5.15;100.00;96556.47;5036669;28;20048;-68
2022/11/14 06:51:36;;;;;;;54.42;29.83;;;;;;;5.24;100.00;96573.47;5041362;28;20140;-68
2022/11/14 06:54:01;;;;;;;49.03;27.65;;;;;;;5.43;100.00;96583.03;5042632;28;20037;-68
2022/11/14 06:56:27;;;;;;;46.70;25.35;;;;;;;5.50;100.00;96581.34;5037295;28;20371;-68
2022/11/14 06:58:52;;;;;;;41.75;23.00;;;;;;;5.58;100.00;96574.22;5041443;28;20444;-68
2022/11/14 07:01:23;;;;;;;45.05;24.25;;;;;;;5.64;100.00;96578.31;5032637;28;20658;-67
2022/11/14 07:03:48;;;;;;;42.80;23.88;;;;;;;5.73;100.00;96581.72;5041449;28;20103;-66
2022/11/14 07:06:23;;;;;;;39.95;24.33;;;;;;;5.74;100.00;96587.94;5036464;28;20040;-68
2022/11/14 07:08:50;;;;;;;38.08;22.20;;;;;;;5.79;100.00;96589.66;5024231;28;20140;-68
2022/11/14 07:11:21;;;;;;;41.05;24.08;;;;;;;5.83;100.00;96588.63;5033927;28;20045;-68
2022/11/14 07:13:51;;;;;;;39.78;22.52;;;;;;;5.95;100.00;96587.84;5042292;28;20041;-67
2022/11/14 07:16:17;;;;;;;40.28;23.55;;;;;;;6.13;100.00;96583.03;5018176;28;20041;-68
2022/11/14 07:18:43;;;;;;;36.42;21.92;;;;;;;6.27;100.00;96596.28;5041476;28;20048;-67
2022/11/14 07:21:08;;;;;;;36.65;22.08;;;;;;;6.26;100.00;96608.28;5036121;28;20517;-68
2022/11/14 07:23:34;;;;;;;37.42;23.67;;;;;;;6.27;100.00;96605.22;5028918;28;20041;-68
2022/11/14 07:26:07;;;;;;;40.13;24.17;;;;;;;6.30;100.00;96612.72;5051695;28;20047;-68
2022/11/14 07:28:34;;;;;;;35.55;21.95;;;;;;;6.32;100.00;96612.38;5051630;28;20045;-69
2022/11/14 07:31:05;;;;;;;37.25;21.70;;;;;;;6.18;100.00;96623.59;5046000;28;20044;-69
2022/11/14 07:33:31;;;;;;;38.90;22.85;;;;;;;6.06;100.00;96609.97;5041329;28;20048;-69
2022/11/14 07:35:57;;;;;;;39.70;25.08;;;;;;;6.20;100.00;96613.16;5041220;28;20041;-69
2022/11/14 07:38:23;;;;;;;41.25;23.20;;;;;;;6.24;100.00;96624.16;5016499;28;20301;-68
2022/11/14 07:41:12;;;;;;;39.78;22.98;;;;;;;6.25;100.00;96625.75;5040945;28;20113;-68
2022/11/14 07:43:37;;;;;;;37.33;22.30;;;;;;;6.13;100.00;96618.38;5040727;28;20064;-68
2022/11/14 07:46:12;;;;;;;40.60;23.35;;;;;;;6.18;100.00;96620.88;5037408;28;20072;-67
2022/11/14 07:48:37;;;;;;;38.70;23.13;;;;;;;6.25;100.00;96625.75;5040690;28;20049;-68
2022/11/14 07:51:05;;;;;;;39.75;22.10;;;;;;;6.33;100.00;96622.09;5037230;28;20045;-66
2022/11/14 07:53:31;;;;;;;37.08;23.15;;;;;;;6.40;100.00;96621.56;5042177;28;20044;-67
2022/11/14 07:56:02;;;;;;;34.38;20.98;;;;;;;6.41;100.00;96634.81;5040822;28;20398;-68
2022/11/14 07:58:28;;;;;;;38.25;22.80;;;;;;;6.40;100.00;96637.88;5036434;28;20049;-69
2022/11/14 08:00:53;;;;;;;39.67;23.58;;;;;;;6.18;100.00;96639.91;5023314;28;20202;-67
2022/11/14 08:03:19;;;;;;;36.83;22.75;;;;;;;5.98;100.00;96629.91;5034543;28;20724;-68
2022/11/14 08:05:44;;;;;;;41.22;22.48;;;;;;;5.97;100.00;96626.41;5040438;28;20410;-68
2022/11/14 08:08:10;;;;;;;37.35;21.70;;;;;;;5.99;100.00;96621.41;5035986;28;20052;-68
2022/11/14 08:10:35;;;;;;;41.33;21.88;;;;;;;6.22;100.00;96624.50;5023727;28;20047;-66
2022/11/14 08:13:04;;;;;;;35.20;22.60;;;;;;;6.30;100.00;96614.63;5041577;28;20055;-66
2022/11/14 08:15:30;;;;;;;35.53;23.38;;;;;;;6.41;100.00;96615.78;5036441;28;20607;-67
2022/11/14 08:18:00;;;;;;;41.13;22.17;;;;;;;6.53;100.00;96617.66;5041461;28;20045;-64
2022/11/14 08:20:26;;;;;;;34.67;21.85;;;;;;;6.68;100.00;96616.16;5034982;28;20052;-66
2022/11/14 08:22:53;;;;;;;37.58;21.48;;;;;;;6.65;100.00;96617.66;5041305;28;20123;-67
2022/11/14 08:25:18;;;;;;;33.35;21.13;;;;;;;6.57;100.00;96625.94;5036021;28;20033;-67
2022/11/14 08:27:44;;;;;;;34.17;20.92;;;;;;;6.65;100.00;96633.19;5039464;28;20136;-66
2022/11/14 08:30:10;;;;;;;33.00;20.05;;;;;;;6.56;100.00;96630.59;5036899;28;20406;-64
2022/11/14 08:32:35;;;;;;;28.70;18.58;;;;;;;6.58;100.00;96625.59;5049432;28;20775;-67
2022/11/14 08:35:01;;;;;;;32.67;20.20;;;;;;;6.72;100.00;96636.13;5048855;28;20047;-67
2022/11/14 08:37:26;;;;;;;31.63;21.35;;;;;;;6.68;100.00;96636.03;5035735;28;20045;-68
2022/11/14 08:39:52;;;;;;;34.35;22.65;;;;;;;6.69;100.00;96637.59;5041074;28;20041;-68
2022/11/14 08:42:17;;;;;;;33.47;22.10;;;;;;;6.64;100.00;96639.78;5018340;28;20478;-68
2022/11/14 08:44:42;;;;;;;33.63;20.77;;;;;;;6.58;100.00;96644.66;5044406;28;20041;-69
2022/11/14 08:47:08;;;;;;;34.55;18.50;;;;;;;6.61;100.00;96651.31;5017435;28;20606;-68
2022/11/14 08:49:33;;;;;;;35.08;20.42;;;;;;;6.63;100.00;96652.59;5030626;28;20465;-68
2022/11/14 08:51:59;;;;;;;35.28;20.92;;;;;;;6.64;100.00;96654.16;5044450;28;20049;-68
2022/11/14 08:54:24;;;;;;;33.10;20.08;;;;;;;6.62;100.00;96667.31;5036782;28;20405;-68
2022/11/14 08:56:49;;;;;;;33.95;20.02;;;;;;;6.66;100.00;96664.72;5040648;28;20456;-70
2022/11/14 08:59:15;;;;;;;31.35;19.20;;;;;;;6.54;100.00;96662.81;5015191;28;20621;-69
2022/11/14 09:01:40;;;;;;;32.35;20.25;;;;;;;6.47;100.00;96668.81;5039814;28;20052;-69
2022/11/14 09:04:07;;;;;;;32.67;19.92;;;;;;;6.61;100.00;96683.97;5034217;28;20444;-67
2022/11/14 09:06:32;;;;;;;31.65;20.95;;;;;;;6.61;100.00;96678.53;5040076;28;20457;-67
2022/11/14 09:08:58;;;;;;;34.08;20.63;;;;;;;6.60;100.00;96687.84;5038263;28;20081;-66
2022/11/14 09:11:23;;;;;;;31.45;19.42;;;;;;;6.55;100.00;96683.41;5036296;28;20541;-68
2022/11/14 09:13:48;;;;;;;35.17;20.30;;;;;;;6.57;100.00;96677.66;5037783;28;20048;-67
2022/11/14 09:16:14;;;;;;;38.38;22.90;;;;;;;6.59;100.00;96681.63;5035106;28;20106;-68
2022/11/14 09:18:39;;;;;;;35.38;22.45;;;;;;;6.68;100.00;96692.38;5040861;28;20041;-67
2022/11/14 09:21:07;;;;;;;34.95;21.83;;;;;;;6.77;100.00;96687.63;5017705;28;20116;-66
2022/11/14 09:23:33;;;;;;;30.33;18.65;;;;;;;6.86;100.00;96698.38;5035412;28;20037;-67
2022/11/14 09:26:07;;;;;;;29.23;18.60;;;;;;;6.83;100.00;96701.81;5041992;28;20064;-66
2022/11/14 09:28:32;;;;;;;27.20;17.65;;;;;;;6.80;100.00;96710.63;5042647;28;20049;-66
2022/11/14 09:31:02;;;;;;;28.45;17.27;;;;;;;6.80;100.00;96707.91;5044969;28;20048;-65
2022/11/14 09:33:27;;;;;;;25.63;16.63;;;;;;;6.87;100.00;96717.09;5041065;28;20509;-67
2022/11/14 09:36:01;;;;;;;29.42;17.58;;;;;;;6.82;100.00;96716.53;5042258;28;20036;-67
2022/11/14 09:38:27;;;;;;;31.63;17.45;;;;;;;6.85;100.00;96713.13;5017445;28;20044;-65
2022/11/14 09:41:04;;;;;;;28.17;17.92;;;;;;;6.91;100.00;96716.41;5043899;28;20385;-66
2022/11/14 09:43:42;;;;;;;32.25;20.02;;;;;;;6.91;100.00;96710.97;5043921;28;20419;-65
2022/11/14 09:46:22;;;;;;;31.88;18.92;;;;;;;6.72;100.00;96720.53;5038197;28;20053;-65
2022/11/14 09:48:50;;;;;;;30.98;20.25;;;;;;;6.59;100.00;96702.59;5011978;28;20038;-65
2022/11/14 09:51:19;;;;;;;35.05;21.33;;;;;;;6.45;100.00;96695.56;5016660;28;20037;-68
2022/11/14 09:53:58;;;;;;;37.22;20.98;;;;;;;6.32;100.00;96711.09;5044420;28;20386;-66
2022/11/14 09:56:25;;;;;;;39.97;23.48;;;;;;;6.28;100.00;96699.31;5036523;28;20854;-66
2022/11/14 09:58:53;;;;;;;45.72;27.75;;;;;;;6.27;100.00;96689.53;5046465;28;20048;-66
2022/11/14 10:01:44;;;;;;;45.78;26.20;;;;;;;6.34;100.00;96690.91;5043908;28;20048;-67
2022/11/14 10:04:27;;;;;;;49.40;27.30;;;;;;;6.35;100.00;96687.84;5044951;28;20516;-66
2022/11/14 10:07:05;;;;;;;38.95;23.55;;;;;;;6.35;100.00;96681.63;5024190;28;20040;-69
2022/11/14 10:09:42;;;;;;;43.15;23.20;;;;;;;6.38;100.00;96676.28;5043038;28;20052;-67
2022/11/14 10:12:17;;;;;;;41.67;23.55;;;;;;;6.46;100.00;96672.69;5037855;28;20041;-67
2022/11/14 10:14:58;;;;;;;37.35;24.00;;;;;;;6.51;100.00;96674.38;5038984;28;20137;-68
2022/11/14 10:17:48;;;;;;;44.75;31.65;;;;;;;6.58;100.00;96676.53;5037270;28;20174;-67
2022/11/14 10:20:23;;;;;;;37.65;22.75;;;;;;;6.76;100.00;96674.34;5035203;28;20367;-66
2022/11/14 10:23:03;;;;;;;32.45;19.85;;;;;;;6.89;100.00;96675.91;5042057;28;20041;-67
2022/11/14 10:25:39;;;;;;;30.77;18.23;;;;;;;7.02;100.00;96674.78;5039781;28;20033;-66
2022/11/14 10:28:33;;;;;;;34.03;23.13;;;;;;;6.88;100.00;96677.84;5035812;28;20037;-71
2022/11/14 10:31:29;;;;;;;31.70;20.73;;;;;;;6.89;100.00;96678.63;5039744;28;20045;-67
2022/11/14 10:34:10;;;;;;;27.85;15.30;;;;;;;6.86;100.00;96663.78;5042568;28;20041;-66
2022/11/14 10:36:35;;;;;;;25.83;14.88;;;;;;;6.92;100.00;96671.72;5038250;28;20174;-67
2022/11/14 10:39:18;;;;;;;23.13;14.83;;;;;;;7.04;100.00;96667.03;5038067;28;20065;-67
2022/11/14 10:41:45;;;;;;;26.67;16.10;;;;;;;7.05;100.00;96673.28;5053428;28;20384;-67
2022/11/14 10:44:15;;;;;;;28.98;17.08;;;;;;;7.05;100.00;96668.63;5043066;28;20044;-66
2022/11/14 10:46:47;;;;;;;25.00;14.80;;;;;;;7.06;100.00;96658.53;5041799;28;20053;-66
2022/11/14 10:49:16;;;;;;;22.23;13.32;;;;;;;7.09;100.00;96660.56;5037580;28;20041;-65
2022/11/14 10:51:43;;;;;;;;;;;;;;;7.16;100.00;96662.69;5042569;28;20044;-67
2022/11/14 10:54:08;;;;;;;19.88;12.45;;;;;;;7.16;100.00;96655.31;5036842;28;19990;-68
2022/11/14 10:56:34;;;;;;;23.75;13.35;;;;;;;7.20;100.00;96656.22;5041993;28;20037;-69
2022/11/14 10:58:59;;;;;;;18.65;12.35;;;;;;;7.36;100.00;96658.97;5023757;28;20149;-67
2022/11/14 11:01:42;;;;;;;19.25;12.05;;;;;;;7.69;100.00;96654.41;5035168;28;20040;-66
2022/11/14 11:04:21;;;;;;;31.50;17.50;;;;;;;8.06;100.00;96657.72;5036449;28;20041;-66
2022/11/14 11:06:52;;;;;;;24.08;13.38;;;;;;;8.31;100.00;96665.75;5042345;28;20078;-68
2022/11/14 11:12:18;;;;;;;14.55;9.05;;;;;;;8.21;100.00;96645.22;5037171;28;20045;-66
2022/11/14 11:14:45;;;;;;;13.07;8.95;;;;;;;7.87;100.00;96638.53;5022552;28;20072;-66
2022/11/14 11:17:11;;;;;;;14.75;10.00;;;;;;;7.75;100.00;96639.41;5034895;28;20520;-66
2022/11/14 11:19:38;;;;;;;17.17;10.52;;;;;;;7.74;100.00;96629.63;5041560;28;20120;-66
2022/11/14 11:22:21;;;;;;;18.75;10.35;;;;;;;7.69;100.00;96633.41;5038246;28;20123;-70
2022/11/14 11:24:47;;;;;;;15.93;10.68;;;;;;;7.74;100.00;96637.81;5042033;28;20033;-66